Time;durP1;ratioP1;P1;durP2;ratioP2;P2;SDS_P1;SDS_P2;PMS_P1;PMS_P2;Temp;Humidity;BMP_temperature;BMP_pressure;BME280_temperature;BME280_humidity;BME280_pressure;Samples;Min_cycle;Max_cycle;Signal;HPM_P1;HPM_P2
2021/01/12 00:00:16;;;;;;;;;;;;;;;-2.75;69.78;98183.33;1691787;83;26269;-86
2021/01/12 00:03:03;;;;;;;;;;;;;;;-2.77;69.76;98183.35;1694018;83;20525;-85
2021/01/12 00:05:49;;;;;;;;;;;;;;;-2.82;69.75;98177.92;1701388;83;20278;-85
2021/01/12 00:08:35;;;;;;;;;;;;;;;-2.90;69.76;98174.70;1695143;84;25086;-86
2021/01/12 00:11:26;;;;;;;;;;;;;;;-2.99;69.74;98170.59;1683153;84;21526;-86
2021/01/12 00:14:31;;;;;;;;;;;;;;;-2.91;69.73;98174.28;1714314;82;26411;-86
2021/01/12 00:17:17;;;;;;;;;;;;;;;-2.91;69.74;98167.88;1712867;82;24690;-86
2021/01/12 00:20:02;;;;;;;;;;;;;;;-2.85;69.76;98166.05;1692620;84;20546;-85
2021/01/12 00:22:50;;;;;;;;;;;;;;;-2.86;69.77;98161.80;1675711;84;24559;-85
2021/01/12 00:25:36;;;;;;;;;;;;;;;-2.89;69.79;98159.28;1704019;83;22060;-85
2021/01/12 00:28:22;;;;;;;;;;;;;;;-2.97;69.78;98159.45;1704565;84;26129;-86
2021/01/12 00:31:08;;;;;;;;;;;;;;;-3.01;69.77;98169.36;1711732;83;25500;-85
2021/01/12 00:33:54;;;;;;;;;;;;;;;-3.06;69.78;98166.48;1720468;83;20292;-85
2021/01/12 00:36:40;;;;;;;;;;;;;;;-3.17;69.78;98161.58;1706788;83;25835;-86
2021/01/12 00:39:30;;;;;;;;;;;;;;;-3.21;69.78;98160.37;1698531;84;22129;-85
2021/01/12 00:42:16;;;;;;;;;;;;;;;-3.21;69.79;98144.58;1712159;82;26223;-85
2021/01/12 00:45:06;;;;;;;;;;;;;;;-3.29;69.79;98145.19;1713631;82;25441;-85
2021/01/12 00:47:52;;;;;;;;;;;;;;;-3.29;69.78;98148.17;1715750;82;20191;-85
2021/01/12 00:50:27;;;;;;;;;;;;;;;-3.32;69.80;98149.06;1713893;82;24977;-85
2021/01/12 00:53:14;;;;;;;;;;;;;;;-3.33;69.81;98156.36;1713315;82;22168;-85
2021/01/12 00:56:01;;;;;;;;;;;;;;;-3.32;69.81;98145.23;1712408;82;26106;-85
2021/01/12 00:58:49;;;;;;;;;;;;;;;-3.28;69.84;98149.44;1712909;82;20211;-85
2021/01/12 01:01:37;;;;;;;;;;;;;;;-3.35;69.87;98142.74;1691562;84;20285;-86
2021/01/12 01:04:27;;;;;;;;;;;;;;;-3.35;69.87;98138.91;1702047;84;24945;-86
2021/01/12 01:07:14;;;;;;;;;;;;;;;-3.26;69.89;98135.31;1711373;82;22157;-86
2021/01/12 01:10:00;;;;;;;;;;;;;;;-3.16;69.93;98134.25;1679177;84;26324;-85
2021/01/12 01:12:46;;;;;;;;;;;;;;;-3.18;69.97;98131.74;1690859;83;24880;-86
2021/01/12 01:15:33;;;;;;;;;;;;;;;-3.18;70.00;98130.90;1716090;82;20277;-86
2021/01/12 01:18:19;;;;;;;;;;;;;;;-3.15;70.02;98131.67;1718290;82;25914;-86
2021/01/12 01:21:10;;;;;;;;;;;;;;;-3.09;70.05;98126.43;1720014;82;22105;-85
2021/01/12 01:23:56;;;;;;;;;;;;;;;-3.08;70.08;98134.52;1681988;83;26151;-85
2021/01/12 01:26:30;;;;;;;;;;;;;;;-3.10;70.09;98130.29;1693202;83;24864;-85
2021/01/12 01:29:17;;;;;;;;;;;;;;;-3.14;70.10;98124.84;1703058;83;20281;-85
2021/01/12 01:32:07;;;;;;;;;;;;;;;-3.12;70.12;98115.42;1711361;82;25067;-85
2021/01/12 01:34:53;;;;;;;;;;;;;;;-3.10;70.14;98108.10;1711406;83;22132;-85
2021/01/12 01:37:39;;;;;;;;;;;;;;;-3.08;70.16;98099.97;1711621;83;26192;-87
2021/01/12 01:40:26;;;;;;;;;;;;;;;-3.12;70.16;98092.39;1712114;82;23850;-86
2021/01/12 01:43:12;;;;;;;;;;;;;;;-3.22;70.16;98093.03;1700022;83;20287;-86
2021/01/12 01:45:58;;;;;;;;;;;;;;;-3.25;70.13;98088.39;1705707;83;25862;-86
2021/01/12 01:48:44;;;;;;;;;;;;;;;-3.22;70.12;98089.19;1718976;82;22229;-86
2021/01/12 01:51:30;;;;;;;;;;;;;;;-3.24;70.13;98090.92;1725918;82;26213;-86
2021/01/12 01:54:19;;;;;;;;;;;;;;;-3.25;70.12;98088.39;1716887;82;24643;-86
2021/01/12 01:57:05;;;;;;;;;;;;;;;-3.25;70.11;98080.28;1718988;82;20279;-86
2021/01/12 01:59:51;;;;;;;;;;;;;;;-3.24;70.12;98076.85;1712217;82;24912;-86
2021/01/12 02:02:37;;;;;;;;;;;;;;;-3.19;70.14;98068.64;1714442;82;22111;-86
2021/01/12 02:05:26;;;;;;;;;;;;;;;-3.19;70.15;98062.25;1717933;82;26178;-86
2021/01/12 02:08:14;;;;;;;;;;;;;;;-3.23;70.17;98053.39;1724307;82;25618;-86
2021/01/12 02:11:00;;;;;;;;;;;;;;;-3.19;70.17;98051.16;1716119;82;20520;-86
2021/01/12 02:13:46;;;;;;;;;;;;;;;-3.21;70.18;98050.34;1705044;83;25059;-85
2021/01/12 02:16:32;;;;;;;;;;;;;;;-3.23;70.15;98040.16;1703405;83;23083;-85
2021/01/12 02:19:19;;;;;;;;;;;;;;;-3.24;70.15;98036.35;1708065;83;26642;-85
2021/01/12 02:22:05;;;;;;;;;;;;;;;-3.28;70.15;98033.03;1733581;80;25491;-85
2021/01/12 02:24:51;;;;;;;;;;;;;;;-3.32;70.15;98027.55;1722598;80;20264;-85
2021/01/12 02:27:37;;;;;;;;;;;;;;;-3.34;70.12;98022.92;1726335;80;24522;-85
2021/01/12 02:30:23;;;;;;;;;;;;;;;-3.33;70.11;98016.94;1722286;80;22319;-86
2021/01/12 02:33:10;;;;;;;;;;;;;;;-3.33;70.12;98020.77;1729301;80;26147;-85
2021/01/12 02:35:56;;;;;;;;;;;;;;;-3.36;70.10;98022.10;1699693;80;24680;-86
2021/01/12 02:38:42;;;;;;;;;;;;;;;-3.36;70.10;98016.98;1728938;80;20293;-86
2021/01/12 02:41:28;;;;;;;;;;;;;;;-3.36;70.11;98008.03;1740060;80;25781;-86
2021/01/12 02:44:14;;;;;;;;;;;;;;;-3.39;70.09;98013.23;1726845;80;22169;-86
2021/01/12 02:47:00;;;;;;;;;;;;;;;-3.37;70.09;98011.02;1721796;80;26126;-86
2021/01/12 02:49:47;;;;;;;;;;;;;;;-3.35;70.09;98005.04;1745008;80;24580;-86
2021/01/12 02:52:33;;;;;;;;;;;;;;;-3.35;70.09;98008.88;1722304;80;20281;-86
2021/01/12 02:57:59;;;;;;;;;;;;;;;-3.42;70.08;97997.92;1738760;80;22136;-86
2021/01/12 03:00:45;;;;;;;;;;;;;;;-3.41;70.08;98000.89;1726975;80;27897;-86
2021/01/12 03:03:31;;;;;;;;;;;;;;;-3.42;70.08;97994.09;1726863;80;24612;-86
2021/01/12 03:06:18;;;;;;;;;;;;;;;-3.42;70.09;97988.54;1662770;84;20289;-86
2021/01/12 03:09:04;;;;;;;;;;;;;;;-3.32;70.10;97985.34;1731096;80;24982;-86
2021/01/12 03:11:50;;;;;;;;;;;;;;;-3.33;70.12;97982.84;1736299;81;22154;-86
2021/01/12 03:14:37;;;;;;;;;;;;;;;-3.35;70.12;97979.45;1744415;81;26137;-86
2021/01/12 03:17:13;;;;;;;;;;;;;;;-3.35;70.11;97977.74;1745395;81;24798;-86
2021/01/12 03:19:59;;;;;;;;;;;;;;;-3.40;70.12;97975.73;1744737;81;20318;-86
2021/01/12 03:22:45;;;;;;;;;;;;;;;-3.39;70.13;97970.59;1747773;81;25759;-86
2021/01/12 03:25:31;;;;;;;;;;;;;;;-3.35;70.12;97966.23;1744304;82;22412;-86
2021/01/12 03:28:17;;;;;;;;;;;;;;;-3.37;70.15;97961.58;1744390;81;26392;-86
2021/01/12 03:31:04;;;;;;;;;;;;;;;-3.34;70.16;97957.69;1748639;81;24830;-86
2021/01/12 03:33:52;;;;;;;;;;;;;;;-3.33;70.16;97955.55;1746399;81;20210;-86
2021/01/12 03:36:38;;;;;;;;;;;;;;;-3.34;70.13;97945.33;1746512;81;24969;-86
2021/01/12 03:39:26;;;;;;;;;;;;;;;-3.35;70.15;97939.38;1744419;82;22144;-87
2021/01/12 03:42:15;;;;;;;;;;;;;;;-3.39;70.15;97939.05;1746464;81;27149;-87
2021/01/12 03:45:01;;;;;;;;;;;;;;;-3.47;70.16;97926.85;1748711;81;25444;-86
2021/01/12 03:47:51;;;;;;;;;;;;;;;-3.43;70.13;97923.34;1746485;81;20480;-86
2021/01/12 03:50:37;;;;;;;;;;;;;;;-3.50;70.13;97921.82;1743927;82;24974;-86
2021/01/12 03:53:23;;;;;;;;;;;;;;;-3.46;70.13;97915.31;1744173;81;22144;-86
2021/01/12 03:56:09;;;;;;;;;;;;;;;-3.39;70.13;97909.20;1744456;81;27803;-86
2021/01/12 03:58:55;;;;;;;;;;;;;;;-3.31;70.14;97898.77;1744488;81;24622;-86
2021/01/12 04:01:41;;;;;;;;;;;;;;;-3.26;70.16;97897.37;1748592;81;20359;-86
2021/01/12 04:04:27;;;;;;;;;;;;;;;-3.28;70.16;97896.59;1746537;81;24959;-86
2021/01/12 04:07:13;;;;;;;;;;;;;;;-3.23;70.16;97890.92;1746385;81;22156;-86
2021/01/12 04:09:59;;;;;;;;;;;;;;;-3.27;70.17;97887.58;1746553;81;26021;-86
2021/01/12 04:12:47;;;;;;;;;;;;;;;-3.29;70.12;97893.62;1746787;81;25565;-86
2021/01/12 04:15:33;;;;;;;;;;;;;;;-3.30;70.12;97897.05;1747063;80;20340;-86
2021/01/12 04:18:20;;;;;;;;;;;;;;;-3.31;70.12;97892.38;1744429;82;24978;-86
2021/01/12 04:21:06;;;;;;;;;;;;;;;-3.25;70.11;97890.11;1744413;81;22142;-86
2021/01/12 04:23:55;;;;;;;;;;;;;;;-3.27;70.08;97881.19;1744520;82;26291;-86
2021/01/12 04:26:41;;;;;;;;;;;;;;;-3.23;70.11;97882.81;1746045;81;24343;-86
2021/01/12 04:29:27;;;;;;;;;;;;;;;-3.26;70.10;97880.31;1744483;81;20274;-86
2021/01/12 04:32:13;;;;;;;;;;;;;;;-3.28;70.08;97883.36;1746406;81;25068;-86
2021/01/12 04:34:58;;;;;;;;;;;;;;;-3.32;70.06;97883.45;1744408;81;22405;-86
2021/01/12 04:37:45;;;;;;;;;;;;;;;-3.34;70.03;97883.94;1748626;81;26865;-86
2021/01/12 04:40:33;;;;;;;;;;;;;;;-3.38;70.01;97883.16;1746458;81;24622;-86
2021/01/12 04:43:19;;;;;;;;;;;;;;;-3.37;70.00;97881.00;1750929;81;20291;-86
2021/01/12 04:46:05;;;;;;;;;;;;;;;-3.37;70.00;97893.36;1752951;81;24914;-86
2021/01/12 04:48:51;;;;;;;;;;;;;;;-3.34;69.99;97885.22;1744392;81;21892;-86
2021/01/12 04:51:39;;;;;;;;;;;;;;;-3.35;70.00;97875.42;1743888;81;26296;-85
2021/01/12 04:54:25;;;;;;;;;;;;;;;-3.34;69.99;97877.11;1752834;81;24877;-86
2021/01/12 04:57:11;;;;;;;;;;;;;;;-3.37;69.96;97873.33;1746655;81;20283;-86
2021/01/12 04:59:57;;;;;;;;;;;;;;;-3.38;69.97;97866.53;1744296;81;24905;-86
2021/01/12 05:02:43;;;;;;;;;;;;;;;-3.40;69.97;97864.03;1746389;81;22106;-85
2021/01/12 05:05:29;;;;;;;;;;;;;;;-3.45;69.95;97849.23;1753139;81;26189;-86
2021/01/12 05:08:17;;;;;;;;;;;;;;;-3.42;69.94;97853.42;1748578;81;24501;-86
2021/01/12 05:11:03;;;;;;;;;;;;;;;-3.39;69.94;97842.70;1744870;81;20360;-87
2021/01/12 05:13:51;;;;;;;;;;;;;;;-3.33;69.95;97834.03;1744450;81;24926;-86
2021/01/12 05:16:37;;;;;;;;;;;;;;;-3.30;69.94;97814.76;1744369;81;22164;-85
2021/01/12 05:19:23;;;;;;;;;;;;;;;-3.23;69.96;97814.17;1744441;81;26189;-86
2021/01/12 05:22:11;;;;;;;;;;;;;;;-3.26;69.97;97807.84;1744517;81;20166;-86
2021/01/12 05:28:03;;;;;;;;;;;;;;;-3.26;69.97;97796.32;1746410;81;25910;-86
2021/01/12 05:30:50;;;;;;;;;;;;;;;-3.23;69.96;97789.43;1746451;81;21461;-85
2021/01/12 05:33:36;;;;;;;;;;;;;;;-3.21;69.95;97788.93;1744605;81;26135;-86
2021/01/12 05:36:27;;;;;;;;;;;;;;;-3.19;69.93;97791.02;1723897;82;24367;-86
2021/01/12 05:39:13;;;;;;;;;;;;;;;-3.20;69.91;97788.50;1748949;81;20271;-86
2021/01/12 05:42:02;;;;;;;;;;;;;;;-3.22;69.90;97786.00;1746568;81;25832;-86
2021/01/12 05:44:49;;;;;;;;;;;;;;;-3.20;69.87;97781.66;1746637;81;23222;-86
2021/01/12 05:47:35;;;;;;;;;;;;;;;-3.17;69.83;97784.16;1744202;81;26199;-85
2021/01/12 05:50:25;;;;;;;;;;;;;;;-3.15;69.84;97781.53;1750847;81;24516;-86
2021/01/12 05:53:15;;;;;;;;;;;;;;;-3.10;69.82;97790.78;1746501;81;20360;-86
2021/01/12 05:56:01;;;;;;;;;;;;;;;-3.04;69.79;97780.82;1746864;81;24981;-85
2021/01/12 05:58:49;;;;;;;;;;;;;;;-3.01;69.79;97776.92;1748695;81;22261;-86
2021/01/12 06:01:34;;;;;;;;;;;;;;;-2.96;69.78;97775.08;1744487;82;26121;-86
2021/01/12 06:04:21;;;;;;;;;;;;;;;-2.99;69.76;97770.02;1744234;82;24584;-86
2021/01/12 06:07:07;;;;;;;;;;;;;;;-3.03;69.72;97764.16;1744593;81;20531;-86
2021/01/12 06:09:54;;;;;;;;;;;;;;;-3.02;69.69;97756.88;1746518;81;25101;-86
2021/01/12 06:12:40;;;;;;;;;;;;;;;-3.00;69.67;97755.57;1740591;81;22067;-86
2021/01/12 06:15:14;;;;;;;;;;;;;;;-2.98;69.63;97755.91;1735016;81;26965;-86
2021/01/12 06:18:02;;;;;;;;;;;;;;;-2.97;69.60;97749.91;1732496;80;24695;-86
2021/01/12 06:20:49;;;;;;;;;;;;;;;-2.97;69.56;97754.19;1736388;80;20275;-86
2021/01/12 06:23:36;;;;;;;;;;;;;;;-2.94;69.54;97751.53;1739941;81;25012;-86
2021/01/12 06:26:22;;;;;;;;;;;;;;;-2.95;69.51;97743.02;1737771;81;22959;-85
2021/01/12 06:29:08;;;;;;;;;;;;;;;-2.90;69.47;97744.63;1738873;80;26989;-86
2021/01/12 06:31:55;;;;;;;;;;;;;;;-2.91;69.46;97736.55;1739891;81;24687;-86
2021/01/12 06:34:42;;;;;;;;;;;;;;;-2.93;69.40;97739.14;1737350;81;20267;-85
2021/01/12 06:37:28;;;;;;;;;;;;;;;-2.89;69.37;97738.17;1741972;81;25879;-86
2021/01/12 06:40:14;;;;;;;;;;;;;;;-2.89;69.35;97731.77;1739194;81;22224;-85
2021/01/12 06:42:59;;;;;;;;;;;;;;;-2.88;69.31;97723.66;1736108;81;26275;-86
2021/01/12 06:45:47;;;;;;;;;;;;;;;-2.85;69.26;97719.30;1736407;81;25527;-86
2021/01/12 06:48:33;;;;;;;;;;;;;;;-2.82;69.26;97725.61;1738247;81;20320;-86
2021/01/12 06:51:21;;;;;;;;;;;;;;;-2.85;69.21;97724.42;1738638;81;24905;-85
2021/01/12 06:54:07;;;;;;;;;;;;;;;-2.85;69.18;97714.19;1738662;81;23058;-86
2021/01/12 06:56:53;;;;;;;;;;;;;;;-2.84;69.13;97709.47;1733957;81;26184;-86
2021/01/12 06:59:39;;;;;;;;;;;;;;;-2.84;69.10;97690.70;1738754;81;25808;-86
2021/01/12 07:02:25;;;;;;;;;;;;;;;-2.82;69.07;97703.84;1740078;81;20302;-86
2021/01/12 07:05:11;;;;;;;;;;;;;;;-2.79;69.04;97698.66;1737632;81;25827;-86
2021/01/12 07:07:57;;;;;;;;;;;;;;;-2.73;69.00;97704.88;1738118;81;22324;-86
2021/01/12 07:10:43;;;;;;;;;;;;;;;-2.68;68.98;97695.78;1737057;81;26942;-87
2021/01/12 07:13:32;;;;;;;;;;;;;;;-2.63;68.97;97692.64;1744500;81;24612;-86
2021/01/12 07:16:21;;;;;;;;;;;;;;;-2.58;68.96;97690.78;1744248;81;20265;-86
2021/01/12 07:19:08;;;;;;;;;;;;;;;-2.51;68.96;97696.12;1742310;81;24436;-86
2021/01/12 07:21:55;;;;;;;;;;;;;;;-2.45;68.93;97695.92;1745788;81;21332;-85
2021/01/12 07:24:42;;;;;;;;;;;;;;;-2.38;68.91;97691.02;1721261;81;26084;-86
2021/01/12 07:27:32;;;;;;;;;;;;;;;-2.34;68.91;97683.63;1748849;81;25424;-85
2021/01/12 07:30:18;;;;;;;;;;;;;;;-2.26;68.90;97677.84;1742181;81;20287;-85
2021/01/12 07:33:04;;;;;;;;;;;;;;;-2.19;68.90;97678.48;1746752;81;25131;-85
2021/01/12 07:35:50;;;;;;;;;;;;;;;-2.13;68.89;97675.73;1743531;81;22110;-85
2021/01/12 07:38:40;;;;;;;;;;;;;;;-2.12;68.88;97665.41;1745716;80;24638;-85
2021/01/12 07:41:26;;;;;;;;;;;;;;;-2.07;68.87;97665.27;1745224;81;25053;-86
2021/01/12 07:44:16;;;;;;;;;;;;;;;-2.00;68.85;97659.50;1746661;81;20441;-85
2021/01/12 07:47:02;;;;;;;;;;;;;;;-1.93;68.84;97655.86;1743493;81;25038;-85
2021/01/12 07:49:49;;;;;;;;;;;;;;;-1.89;68.83;97648.01;1750722;81;22612;-86
2021/01/12 07:52:35;;;;;;;;;;;;;;;-1.86;68.81;97639.39;1740202;81;26983;-86
2021/01/12 07:55:21;;;;;;;;;;;;;;;-1.80;68.78;97636.63;1739204;81;24506;-86
2021/01/12 07:58:13;;;;;;;;;;;;;;;-1.75;68.75;97634.75;1740007;81;20201;-85
2021/01/12 08:00:59;;;;;;;;;;;;;;;-1.72;68.73;97636.75;1747172;81;24905;-86
2021/01/12 08:03:51;;;;;;;;;;;;;;;-1.67;68.70;97635.75;1743295;81;23018;-86
2021/01/12 08:06:37;;;;;;;;;;;;;;;-1.64;68.66;97630.09;1746008;81;26102;-86
2021/01/12 08:09:24;;;;;;;;;;;;;;;-1.64;68.62;97629.25;1742391;81;24617;-85
2021/01/12 08:12:14;;;;;;;;;;;;;;;-1.59;68.58;97629.48;1745140;81;20340;-86
2021/01/12 08:15:04;;;;;;;;;;;;;;;-1.59;68.53;97627.36;1755511;80;25778;-85
2021/01/12 08:17:50;;;;;;;;;;;;;;;-1.50;68.49;97633.45;1760824;80;22147;-85
2021/01/12 08:20:36;;;;;;;;;;;;;;;-1.44;68.45;97640.50;1754616;81;26189;-85
2021/01/12 08:23:23;;;;;;;;;;;;;;;-1.44;68.42;97637.92;1754373;81;24712;-85
2021/01/12 08:26:10;;;;;;;;;;;;;;;-1.41;68.38;97640.38;1756598;80;20548;-85
2021/01/12 08:28:56;;;;;;;;;;;;;;;-1.33;68.34;97634.98;1754418;81;24945;-85
2021/01/12 08:31:43;;;;;;;;;;;;;;;-1.28;68.31;97631.80;1755633;80;22311;-85
2021/01/12 08:34:29;;;;;;;;;;;;;;;-1.24;68.25;97635.93;1754346;80;26131;-86
2021/01/12 08:37:15;;;;;;;;;;;;;;;-1.17;68.20;97631.42;1756692;80;24607;-85
2021/01/12 08:40:00;;;;;;;;;;;;;;;-1.10;68.18;97632.88;1758938;80;20355;-86
2021/01/12 08:42:38;;;;;;;;;;;;;;;-1.01;68.18;97637.67;1754494;80;24944;-86
2021/01/12 08:45:23;;;;;;;;;;;;;;;-0.92;68.16;97633.03;1757205;80;23100;-86
2021/01/12 08:48:09;;;;;;;;;;;;;;;-0.85;68.15;97624.21;1754656;80;27153;-86
2021/01/12 08:50:55;;;;;;;;;;;;;;;-0.75;68.17;97618.72;1754470;81;24725;-86
2021/01/12 08:53:42;;;;;;;;;;;;;;;-0.73;68.13;97619.06;1756776;80;20618;-86
2021/01/12 08:56:28;;;;;;;;;;;;;;;-0.69;68.09;97627.03;1754428;80;25015;-87
2021/01/12 08:59:17;;;;;;;;;;;;;;;-0.64;68.05;97617.86;1756702;80;22164;-87
2021/01/12 09:02:03;;;;;;;;;;;;;;;-0.58;68.02;97621.04;1754659;81;26092;-87
2021/01/12 09:04:50;;;;;;;;;;;;;;;-0.54;67.99;97617.45;1758252;80;24695;-87
2021/01/12 09:07:36;;;;;;;;;;;;;;;-0.49;67.93;97609.55;1759004;80;20282;-86
2021/01/12 09:10:22;;;;;;;;;;;;;;;-0.44;67.89;97620.05;1759233;80;24892;-86
2021/01/12 09:13:08;;;;;;;;;;;;;;;-0.37;67.87;97614.67;1753864;80;23047;-86
2021/01/12 09:15:55;;;;;;;;;;;;;;;-0.33;67.81;97612.39;1756702;80;26203;-86
2021/01/12 09:18:41;;;;;;;;;;;;;;;-0.29;67.78;97601.91;1756702;80;24688;-87
2021/01/12 09:21:27;;;;;;;;;;;;;;;-0.24;67.73;97605.59;1756872;80;20304;-86
2021/01/12 09:24:13;;;;;;;;;;;;;;;-0.24;67.67;97597.88;1756761;80;24924;-86
2021/01/12 09:26:59;;;;;;;;;;;;;;;-0.22;67.61;97587.09;1758581;80;22221;-86
2021/01/12 09:29:46;;;;;;;;;;;;;;;-0.22;67.54;97585.33;1758061;80;26179;-86
2021/01/12 09:32:34;;;;;;;;;;;;;;;-0.21;67.49;97579.73;1756737;80;24608;-86
2021/01/12 09:35:21;;;;;;;;;;;;;;;-0.23;67.42;97573.84;1760166;80;20264;-86
2021/01/12 09:38:07;;;;;;;;;;;;;;;-0.20;67.36;97557.83;1754467;80;24848;-86
2021/01/12 09:40:53;;;;;;;;;;;;;;;-0.14;67.34;97550.31;1756770;80;22145;-87
2021/01/12 09:43:39;;;;;;;;;;;;;;;-0.12;67.33;97540.37;1756666;80;26126;-86
2021/01/12 09:46:25;;;;;;;;;;;;;;;-0.06;67.30;97543.97;1756862;80;24918;-86
2021/01/12 09:49:11;;;;;;;;;;;;;;;-0.01;67.27;97530.92;1754240;81;20398;-86
2021/01/12 09:51:58;;;;;;;;;;;;;;;0.00;67.24;97531.31;1753563;81;25144;-86
2021/01/12 09:54:46;;;;;;;;;;;;;;;0.00;67.20;97528.26;1756371;80;22306;-86
2021/01/12 09:57:31;;;;;;;;;;;;;;;0.00;67.14;97531.31;1759247;80;26953;-86
2021/01/12 10:00:17;;;;;;;;;;;;;;;0.03;67.10;97531.61;1755066;80;23739;-86
2021/01/12 10:03:03;;;;;;;;;;;;;;;0.03;67.05;97523.89;1755345;80;20295;-86
2021/01/12 10:05:50;;;;;;;;;;;;;;;0.08;67.02;97518.94;1756694;80;25885;-86
2021/01/12 10:08:38;;;;;;;;;;;;;;;0.15;66.99;97519.08;1754538;80;22225;-86
2021/01/12 10:11:24;;;;;;;;;;;;;;;0.20;66.97;97511.99;1756874;80;26119;-86
2021/01/12 10:14:10;;;;;;;;;;;;;;;0.20;66.95;97508.13;1754902;80;24703;-86
2021/01/12 10:16:56;;;;;;;;;;;;;;;0.22;66.90;97495.21;1744214;81;20610;-86
2021/01/12 10:19:42;;;;;;;;;;;;;;;0.30;66.88;97482.83;1744404;81;24924;-86
2021/01/12 10:22:28;;;;;;;;;;;;;;;0.27;66.82;97477.35;1744756;81;21975;-86
2021/01/12 10:25:15;;;;;;;;;;;;;;;0.34;66.81;97480.50;1744027;81;26191;-86
2021/01/12 10:28:02;;;;;;;;;;;;;;;0.37;66.76;97487.65;1746449;81;25461;-86
2021/01/12 10:30:48;;;;;;;;;;;;;;;0.45;66.70;97481.30;1743461;81;20189;-86
2021/01/12 10:33:34;;;;;;;;;;;;;;;0.47;66.68;97473.91;1742345;81;24917;-86
2021/01/12 10:36:24;;;;;;;;;;;;;;;0.48;66.61;97473.02;1743124;81;22152;-86
2021/01/12 10:39:10;;;;;;;;;;;;;;;0.55;66.55;97458.94;1746277;81;27011;-86
2021/01/12 10:41:56;;;;;;;;;;;;;;;0.56;66.48;97447.75;1741921;82;24601;-87
2021/01/12 10:44:42;;;;;;;;;;;;;;;0.60;66.43;97432.53;1742329;81;20274;-85
2021/01/12 10:47:28;;;;;;;;;;;;;;;0.62;66.40;97427.32;1747248;81;25749;-86
2021/01/12 10:50:14;;;;;;;;;;;;;;;0.61;66.34;97426.48;1744096;81;22428;-86
2021/01/12 10:53:00;;;;;;;;;;;;;;;0.64;66.29;97422.95;1742663;81;26368;-86
2021/01/12 10:55:46;;;;;;;;;;;;;;;0.69;66.22;97424.86;1748258;81;25450;-86
2021/01/12 10:58:34;;;;;;;;;;;;;;;0.72;66.22;97417.81;1742500;81;20338;-86
2021/01/12 11:01:24;;;;;;;;;;;;;;;0.73;66.16;97422.06;1743685;81;25917;-86
2021/01/12 11:04:11;;;;;;;;;;;;;;;0.76;66.12;97431.40;1744071;81;22980;-86
2021/01/12 11:06:58;;;;;;;;;;;;;;;0.76;66.06;97429.62;1745528;81;26174;-86
2021/01/12 11:09:45;;;;;;;;;;;;;;;0.74;65.98;97408.28;1746146;81;24588;-86
2021/01/12 11:12:31;;;;;;;;;;;;;;;0.68;65.89;97408.57;1745173;81;20250;-86
2021/01/12 11:15:18;;;;;;;;;;;;;;;0.68;65.80;97406.00;1750832;80;24918;-85
2021/01/12 11:18:04;;;;;;;;;;;;;;;0.64;65.72;97408.79;1758903;80;23005;-85
2021/01/12 11:20:49;;;;;;;;;;;;;;;0.62;65.63;97403.70;1754524;80;27080;-86
2021/01/12 11:23:36;;;;;;;;;;;;;;;0.61;65.55;97393.47;1754326;81;24629;-86
2021/01/12 11:26:23;;;;;;;;;;;;;;;0.56;65.47;97400.13;1758804;80;20271;-87
2021/01/12 11:29:15;;;;;;;;;;;;;;;0.57;65.37;97395.36;1759071;80;24981;-86
2021/01/12 11:32:01;;;;;;;;;;;;;;;0.60;65.30;97384.91;1754639;81;22128;-85
2021/01/12 11:34:48;;;;;;;;;;;;;;;0.60;65.26;97364.80;1754625;81;26148;-85
2021/01/12 11:37:33;;;;;;;;;;;;;;;0.62;65.21;97371.98;1754323;81;24641;-85
2021/01/12 11:40:20;;;;;;;;;;;;;;;0.62;65.15;97368.11;1754347;80;20276;-87
2021/01/12 11:43:10;;;;;;;;;;;;;;;0.65;65.09;97362.39;1756982;80;24930;-88
2021/01/12 11:45:58;;;;;;;;;;;;;;;0.70;65.05;97363.45;1758480;80;22531;-87
2021/01/12 11:48:45;;;;;;;;;;;;;;;0.77;65.03;97366.09;1756653;80;27117;-88
2021/01/12 11:51:34;;;;;;;;;;;;;;;0.83;65.02;97360.66;1760896;80;25469;-86
2021/01/12 11:54:20;;;;;;;;;;;;;;;0.87;65.00;97359.62;1754400;80;20252;-87
2021/01/12 11:57:09;;;;;;;;;;;;;;;0.91;64.96;97355.98;1754559;81;24952;-86
2021/01/12 11:59:53;;;;;;;;;;;;;;;0.95;64.92;97352.34;1754369;80;22144;-85
2021/01/12 12:02:39;;;;;;;;;;;;;;;0.95;64.89;97342.03;1758009;80;26217;-85
2021/01/12 12:05:25;;;;;;;;;;;;;;;0.96;64.82;97341.58;1761311;80;25556;-86
2021/01/12 12:08:11;;;;;;;;;;;;;;;1.01;64.79;97341.73;1753503;80;20308;-86
2021/01/12 12:10:56;;;;;;;;;;;;;;;1.04;64.76;97335.58;1753471;80;24971;-86
2021/01/12 12:13:44;;;;;;;;;;;;;;;1.11;64.73;97334.37;1754834;80;22276;-86
2021/01/12 12:16:29;;;;;;;;;;;;;;;1.18;64.70;97319.00;1754795;80;26139;-86
2021/01/12 12:19:15;;;;;;;;;;;;;;;1.17;64.65;97327.64;1754705;80;24870;-86
2021/01/12 12:22:04;;;;;;;;;;;;;;;1.16;64.59;97320.81;1753698;81;20159;-86
2021/01/12 12:24:51;;;;;;;;;;;;;;;1.17;64.52;97313.02;1756652;80;25062;-87
2021/01/12 12:27:37;;;;;;;;;;;;;;;1.18;64.44;97306.95;1758497;80;22861;-86
2021/01/12 12:30:23;;;;;;;;;;;;;;;1.22;64.43;97302.47;1756009;80;26319;-87
2021/01/12 12:33:13;;;;;;;;;;;;;;;1.21;64.34;97297.77;1754241;80;25401;-87
2021/01/12 12:36:02;;;;;;;;;;;;;;;1.20;64.25;97288.85;1757206;80;20264;-87
2021/01/12 12:38:48;;;;;;;;;;;;;;;1.21;64.19;97284.88;1754464;80;25088;-87
2021/01/12 12:41:34;;;;;;;;;;;;;;;1.25;64.12;97288.16;1754550;81;23048;-86
2021/01/12 12:44:21;;;;;;;;;;;;;;;1.28;64.07;97274.27;1754763;80;25331;-87
2021/01/12 12:47:08;;;;;;;;;;;;;;;1.33;64.03;97270.55;1758725;80;25050;-87
2021/01/12 12:49:54;;;;;;;;;;;;;;;1.40;64.00;97259.02;1754340;80;20268;-87
2021/01/12 12:52:41;;;;;;;;;;;;;;;1.42;63.96;97252.02;1756661;80;24970;-87
2021/01/12 12:55:30;;;;;;;;;;;;;;;1.48;63.91;97245.25;1754551;80;22221;-87
2021/01/12 12:58:20;;;;;;;;;;;;;;;1.53;63.87;97241.14;1757320;80;26336;-87
2021/01/12 13:01:09;;;;;;;;;;;;;;;1.52;63.81;97235.18;1752887;80;24638;-87
2021/01/12 13:03:54;;;;;;;;;;;;;;;1.54;63.78;97232.50;1754728;80;20388;-87
2021/01/12 13:06:41;;;;;;;;;;;;;;;1.53;63.70;97233.41;1753855;80;25121;-87
2021/01/12 13:09:29;;;;;;;;;;;;;;;1.53;63.64;97224.38;1754290;81;21931;-87
2021/01/12 13:12:15;;;;;;;;;;;;;;;1.53;63.58;97219.23;1757458;80;26115;-87
2021/01/12 13:15:02;;;;;;;;;;;;;;;1.51;63.54;97218.49;1746622;80;24806;-87
2021/01/12 13:17:53;;;;;;;;;;;;;;;1.46;63.47;97214.04;1731624;82;20367;-86
2021/01/12 13:20:39;;;;;;;;;;;;;;;1.42;63.42;97208.20;1735571;82;25075;-86
2021/01/12 13:23:29;;;;;;;;;;;;;;;1.38;63.37;97202.00;1735180;82;23075;-87
2021/01/12 13:26:22;;;;;;;;;;;;;;;1.38;63.30;97194.27;1736518;82;25498;-87
2021/01/12 13:29:08;;;;;;;;;;;;;;;1.35;63.26;97193.16;1738000;82;24710;-88
2021/01/12 13:31:54;;;;;;;;;;;;;;;1.36;63.22;97188.38;1738377;82;20554;-87
2021/01/12 13:34:41;;;;;;;;;;;;;;;1.25;63.19;97192.33;1736919;82;24925;-88
2021/01/12 13:37:28;;;;;;;;;;;;;;;1.20;63.14;97191.74;1735668;82;22305;-87
2021/01/12 13:40:14;;;;;;;;;;;;;;;1.20;63.09;97198.67;1740044;82;26153;-86
2021/01/12 13:43:00;;;;;;;;;;;;;;;1.19;63.09;97193.97;1737338;82;24645;-87
2021/01/12 13:45:47;;;;;;;;;;;;;;;1.13;63.05;97196.86;1736435;82;20291;-86
2021/01/12 13:48:33;;;;;;;;;;;;;;;1.10;63.02;97188.44;1738224;82;25053;-87
2021/01/12 13:51:19;;;;;;;;;;;;;;;0.98;62.97;97183.50;1735724;82;22111;-87
2021/01/12 13:54:06;;;;;;;;;;;;;;;0.94;62.92;97183.25;1737152;82;26230;-86
2021/01/12 13:56:52;;;;;;;;;;;;;;;0.91;62.90;97185.16;1704416;82;24667;-86
2021/01/12 13:59:38;;;;;;;;;;;;;;;0.87;62.86;97175.48;1738392;82;20286;-86
2021/01/12 14:02:28;;;;;;;;;;;;;;;0.81;62.88;97174.52;1736094;82;25762;-87
2021/01/12 14:05:14;;;;;;;;;;;;;;;0.75;62.89;97170.95;1732533;82;22585;-87
2021/01/12 14:08:01;;;;;;;;;;;;;;;0.72;62.89;97168.52;1738143;82;26296;-87
2021/01/12 14:10:50;;;;;;;;;;;;;;;0.64;62.89;97161.20;1738282;82;24634;-87
2021/01/12 14:13:36;;;;;;;;;;;;;;;0.63;62.90;97153.55;1737426;82;20601;-87
2021/01/12 14:16:22;;;;;;;;;;;;;;;0.60;62.91;97161.45;1742918;81;24870;-86
2021/01/12 14:19:09;;;;;;;;;;;;;;;0.58;62.94;97162.80;1740334;81;22251;-86
2021/01/12 14:21:54;;;;;;;;;;;;;;;0.54;62.96;97164.32;1741248;81;26672;-86
2021/01/12 14:24:41;;;;;;;;;;;;;;;0.46;63.00;97167.27;1741855;81;25480;-86
2021/01/12 14:27:29;;;;;;;;;;;;;;;0.39;63.00;97163.33;1741416;81;20275;-86
2021/01/12 14:30:18;;;;;;;;;;;;;;;0.30;63.01;97165.08;1744168;81;24878;-86
2021/01/12 14:33:04;;;;;;;;;;;;;;;0.27;63.05;97162.19;1745324;81;23339;-86
2021/01/12 14:35:50;;;;;;;;;;;;;;;0.27;63.09;97158.33;1740281;81;26567;-86